createdAt,value
2018-09-06T00:01:03.624Z,15.70
2018-09-06T00:04:01.419Z,15.80
2018-09-06T00:06:59.048Z,15.80
2018-09-06T00:09:57.004Z,15.80
2018-09-06T00:12:54.435Z,15.70
2018-09-06T00:15:52.171Z,15.50
2018-09-06T00:18:49.767Z,15.50
2018-09-06T00:21:47.172Z,15.40
2018-09-06T00:24:45.742Z,15.40
2018-09-06T00:27:43.376Z,15.40
2018-09-06T00:30:40.985Z,15.40
2018-09-06T00:33:38.418Z,15.50
2018-09-06T00:36:36.064Z,15.50
2018-09-06T00:39:33.872Z,15.60
2018-09-06T00:42:31.552Z,15.60
2018-09-06T00:45:29.280Z,15.50
2018-09-06T00:48:27.060Z,15.40
2018-09-06T00:51:24.664Z,15.40
2018-09-06T00:54:22.362Z,15.40
2018-09-06T00:57:20.233Z,15.40
2018-09-06T01:00:17.958Z,15.40
2018-09-06T01:03:16.362Z,15.40
2018-09-06T01:06:14.130Z,15.30
2018-09-06T01:09:11.921Z,15.30
2018-09-06T01:12:09.781Z,15.40
2018-09-06T01:15:07.408Z,15.40
2018-09-06T01:18:05.233Z,15.50
2018-09-06T01:21:03.692Z,15.50
2018-09-06T01:24:02.387Z,15.50
2018-09-06T01:26:59.970Z,15.60
2018-09-06T01:29:57.686Z,15.50
2018-09-06T01:32:55.178Z,15.30
2018-09-06T01:35:58.757Z,15.10
2018-09-06T01:38:57.288Z,15.10
2018-09-06T01:41:55.650Z,15.10
2018-09-06T01:44:53.095Z,15.00
2018-09-06T01:47:50.948Z,15.00
2018-09-06T01:50:48.532Z,15.10
2018-09-06T01:53:48.466Z,15.00
2018-09-06T01:56:46.292Z,15.00
2018-09-06T01:59:44.889Z,15.00
2018-09-06T02:02:43.600Z,14.90
2018-09-06T02:05:44.444Z,15.00
2018-09-06T02:08:42.084Z,14.90
2018-09-06T02:11:40.080Z,14.80
2018-09-06T02:14:37.802Z,14.90
2018-09-06T02:17:35.342Z,14.90
2018-09-06T02:20:33.005Z,14.90
2018-09-06T02:23:30.966Z,14.90
2018-09-06T02:26:28.787Z,14.90
2018-09-06T02:29:26.475Z,14.90
2018-09-06T02:32:24.209Z,15.00
2018-09-06T02:35:22.080Z,15.00
2018-09-06T02:38:19.879Z,14.90
2018-09-06T02:41:17.695Z,14.90
2018-09-06T02:44:16.350Z,14.90
2018-09-06T02:47:14.117Z,14.90
2018-09-06T02:50:17.631Z,15.00
2018-09-06T02:53:15.351Z,15.00
2018-09-06T02:57:16.658Z,14.90
2018-09-06T03:00:14.348Z,14.90
2018-09-06T03:03:12.994Z,14.90
2018-09-06T03:06:10.573Z,14.80
2018-09-06T03:09:08.340Z,14.90
2018-09-06T03:12:10.133Z,14.90
2018-09-06T03:15:07.783Z,15.00
2018-09-06T03:18:05.458Z,15.00
2018-09-06T03:21:03.543Z,15.00
2018-09-06T03:24:00.845Z,15.00
2018-09-06T03:26:58.449Z,15.00
2018-09-06T03:29:56.227Z,14.90
2018-09-06T03:32:53.761Z,14.90
2018-09-06T03:35:51.386Z,14.80
2018-09-06T03:38:48.949Z,14.80
2018-09-06T03:41:46.526Z,14.80
2018-09-06T03:44:45.222Z,14.70
2018-09-06T03:47:43.014Z,14.60
2018-09-06T03:50:40.612Z,14.60
2018-09-06T03:53:38.280Z,14.60
2018-09-06T03:56:36.057Z,14.60
2018-09-06T03:59:33.786Z,14.50
2018-09-06T04:02:31.586Z,14.40
2018-09-06T04:05:29.219Z,14.50
2018-09-06T04:08:27.033Z,14.50
2018-09-06T04:11:24.861Z,14.40
2018-09-06T04:14:22.551Z,14.40
2018-09-06T04:17:20.130Z,14.40
2018-09-06T04:20:17.709Z,14.30
2018-09-06T04:23:15.356Z,14.40
2018-09-06T04:26:12.879Z,14.50
2018-09-06T04:29:10.635Z,14.40
2018-09-06T04:32:08.305Z,14.40
2018-09-06T04:35:06.038Z,14.30
2018-09-06T04:38:03.879Z,14.40
2018-09-06T04:41:01.410Z,14.40
2018-09-06T04:43:58.920Z,14.30
2018-09-06T04:46:56.766Z,14.30
2018-09-06T04:49:54.405Z,14.30
2018-09-06T04:52:52.062Z,14.20
2018-09-06T04:55:49.774Z,14.20
2018-09-06T04:58:47.628Z,14.20
2018-09-06T05:01:45.347Z,14.20
2018-09-06T05:04:42.990Z,14.30
2018-09-06T05:07:40.864Z,14.40
2018-09-06T05:10:38.561Z,14.40
2018-09-06T05:13:37.367Z,14.40
2018-09-06T05:16:35.256Z,14.40
2018-09-06T05:19:33.173Z,14.40
2018-09-06T05:22:31.181Z,14.50
2018-09-06T05:25:30.019Z,14.60
2018-09-06T05:28:27.825Z,14.60
2018-09-06T05:31:26.587Z,14.60
2018-09-06T05:34:24.254Z,14.70
2018-09-06T05:37:21.989Z,14.60
2018-09-06T05:40:19.633Z,14.70
2018-09-06T05:43:17.909Z,14.70
2018-09-06T05:46:16.246Z,14.90
2018-09-06T05:49:13.949Z,14.90
2018-09-06T05:52:11.502Z,15.00
2018-09-06T05:55:09.230Z,14.80
2018-09-06T05:58:06.853Z,14.90
2018-09-06T06:01:05.319Z,14.80
2018-09-06T06:04:03.031Z,14.90
2018-09-06T06:07:00.738Z,15.00
2018-09-06T06:09:58.342Z,15.00
2018-09-06T06:12:56.145Z,14.80
2018-09-06T06:15:53.933Z,14.70
2018-09-06T06:18:51.568Z,14.80
2018-09-06T06:21:50.127Z,14.90
2018-09-06T06:24:47.854Z,15.10
2018-09-06T06:27:45.617Z,15.20
2018-09-06T06:30:43.295Z,15.30
2018-09-06T06:33:42.930Z,15.10
2018-09-06T06:36:40.562Z,15.10
2018-09-06T06:39:38.270Z,15.20
2018-09-06T06:42:36.964Z,15.00
2018-09-06T06:45:34.731Z,14.80
2018-09-06T06:48:32.399Z,14.80
2018-09-06T06:51:30.128Z,14.90
2018-09-06T06:54:29.072Z,14.90
2018-09-06T06:57:27.227Z,14.80
2018-09-06T07:00:25.522Z,14.90
2018-09-06T07:03:23.286Z,15.00
2018-09-06T07:06:21.083Z,15.10
2018-09-06T07:09:20.767Z,14.90
2018-09-06T07:12:18.618Z,14.80
2018-09-06T07:15:16.303Z,14.80
2018-09-06T07:18:13.861Z,15.00
2018-09-06T07:21:11.335Z,14.90
2018-09-06T07:24:10.207Z,15.10
2018-09-06T07:27:08.911Z,15.30
2018-09-06T07:30:07.475Z,15.40
2018-09-06T07:33:05.058Z,15.40
2018-09-06T07:36:03.061Z,15.40
2018-09-06T07:39:00.466Z,15.20
2018-09-06T07:41:58.452Z,15.10
2018-09-06T07:44:57.047Z,15.00
2018-09-06T07:47:54.906Z,15.00
2018-09-06T07:50:52.417Z,15.10
2018-09-06T07:53:50.118Z,15.10
2018-09-06T07:56:47.860Z,15.20
2018-09-06T07:59:45.762Z,15.30
2018-09-06T08:02:43.487Z,15.20
2018-09-06T08:05:41.351Z,15.20
2018-09-06T08:08:38.969Z,15.20
2018-09-06T08:11:36.670Z,15.40
2018-09-06T08:14:34.248Z,15.50
2018-09-06T08:17:31.777Z,15.70
2018-09-06T08:20:29.569Z,15.80
2018-09-06T08:23:27.470Z,15.60
2018-09-06T08:26:25.310Z,15.80
2018-09-06T08:29:23.833Z,16.00
2018-09-06T08:32:22.627Z,16.20
2018-09-06T08:35:20.377Z,16.20
2018-09-06T08:38:18.123Z,16.30
2018-09-06T08:41:15.704Z,16.30
2018-09-06T08:44:13.435Z,16.60
2018-09-06T08:47:11.127Z,16.70
2018-09-06T08:50:09.270Z,17.00
2018-09-06T08:53:07.127Z,17.80
2018-09-06T08:56:04.999Z,18.00
2018-09-06T08:59:03.686Z,18.20
2018-09-06T09:02:03.856Z,18.60
2018-09-06T09:05:01.461Z,18.10
2018-09-06T09:07:59.134Z,18.10
2018-09-06T09:10:56.674Z,17.50
2018-09-06T09:13:54.351Z,17.60
2018-09-06T09:16:51.955Z,18.90
2018-09-06T09:19:49.660Z,19.90
2018-09-06T09:22:47.269Z,20.70
2018-09-06T09:25:44.968Z,21.40
2018-09-06T09:28:42.638Z,21.60
2018-09-06T09:31:41.307Z,21.80
2018-09-06T09:34:39.111Z,22.60
2018-09-06T09:37:36.981Z,22.70
2018-09-06T09:40:43.838Z,22.80
2018-09-06T09:43:41.522Z,23.50
2018-09-06T09:49:36.778Z,23.10
2018-09-06T09:52:34.280Z,24.20
2018-09-06T09:55:33.196Z,24.60
2018-09-06T09:58:30.742Z,23.90
2018-09-06T10:01:28.881Z,23.30
2018-09-06T10:04:32.970Z,22.60
2018-09-06T10:07:36.583Z,22.40
2018-09-06T10:10:34.199Z,22.30
2018-09-06T10:13:31.986Z,21.40
2018-09-06T10:16:30.434Z,21.20
2018-09-06T10:19:28.470Z,21.10
2018-09-06T10:22:26.199Z,21.20
2018-09-06T10:25:24.077Z,20.50
2018-09-06T10:28:22.565Z,20.10
2018-09-06T10:31:21.367Z,19.60
2018-09-06T10:34:19.179Z,19.90
2018-09-06T10:37:16.830Z,19.40
2018-09-06T10:40:14.744Z,19.40
2018-09-06T10:43:12.222Z,19.50
2018-09-06T10:46:09.787Z,19.50
2018-09-06T10:49:07.528Z,19.20
2018-09-06T10:52:05.250Z,18.90
2018-09-06T10:55:02.897Z,18.50
2018-09-06T10:58:00.864Z,18.30
2018-09-06T11:01:03.268Z,18.20
2018-09-06T11:04:02.312Z,18.40
2018-09-06T11:06:59.971Z,18.20
2018-09-06T11:09:57.741Z,18.60
2018-09-06T11:12:55.363Z,18.90
2018-09-06T11:15:54.255Z,19.10
2018-09-06T11:18:51.835Z,18.70
2018-09-06T11:21:49.452Z,18.90
2018-09-06T11:24:46.918Z,18.90
2018-09-06T11:27:45.413Z,18.50
2018-09-06T11:30:43.192Z,18.70
2018-09-06T11:33:40.776Z,18.70
2018-09-06T11:36:38.325Z,18.70
2018-09-06T11:39:35.791Z,18.90
2018-09-06T11:42:34.336Z,19.00
2018-09-06T11:45:31.930Z,19.10
2018-09-06T11:48:29.638Z,19.10
2018-09-06T11:51:27.550Z,19.00
2018-09-06T11:54:26.055Z,18.50
2018-09-06T11:57:23.677Z,18.50
2018-09-06T12:00:21.294Z,18.80
2018-09-06T12:03:21.221Z,18.60
2018-09-06T12:06:18.950Z,18.80
2018-09-06T12:09:16.723Z,18.90
2018-09-06T12:12:15.269Z,18.80
2018-09-06T12:15:13.761Z,18.90
2018-09-06T12:18:11.236Z,19.20
2018-09-06T12:21:09.505Z,19.50
2018-09-06T12:24:08.362Z,19.70
2018-09-06T12:27:06.057Z,19.70
2018-09-06T12:30:03.730Z,19.80
2018-09-06T12:33:02.484Z,19.80
2018-09-06T12:36:00.080Z,20.30
2018-09-06T12:38:57.970Z,21.00
2018-09-06T12:41:55.696Z,21.30
2018-09-06T12:44:53.602Z,21.30
2018-09-06T12:47:51.211Z,20.70
2018-09-06T12:50:48.820Z,20.30
2018-09-06T12:53:49.375Z,19.90
2018-09-06T12:56:47.063Z,20.00
2018-09-06T12:59:44.722Z,20.00
2018-09-06T13:02:42.373Z,20.00
2018-09-06T13:05:40.148Z,19.50
2018-09-06T13:08:37.653Z,19.20
2018-09-06T13:11:35.416Z,19.20
2018-09-06T13:14:34.240Z,19.20
2018-09-06T13:17:31.840Z,19.50
2018-09-06T13:20:32.389Z,19.90
2018-09-06T13:23:29.840Z,20.30
2018-09-06T13:26:27.623Z,20.50
2018-09-06T13:29:25.363Z,20.10
2018-09-06T13:32:23.044Z,20.00
2018-09-06T13:35:20.727Z,19.80
2018-09-06T13:38:18.615Z,19.90
2018-09-06T13:41:16.433Z,19.60
2018-09-06T13:44:14.266Z,19.30
2018-09-06T13:47:12.056Z,19.40
2018-09-06T13:50:09.821Z,19.60
2018-09-06T13:53:07.471Z,19.70
2018-09-06T13:56:05.227Z,19.70
2018-09-06T13:59:04.085Z,19.90
2018-09-06T14:02:01.671Z,19.70
2018-09-06T14:04:59.259Z,19.60
2018-09-06T14:07:57.015Z,19.50
2018-09-06T14:10:55.532Z,19.40
2018-09-06T14:13:53.375Z,19.60
2018-09-06T14:16:50.954Z,19.50
2018-09-06T14:19:48.949Z,19.50
2018-09-06T14:22:46.481Z,19.10
2018-09-06T14:25:44.315Z,18.90
2018-09-06T14:28:41.714Z,19.00
2018-09-06T14:31:39.587Z,19.00
2018-09-06T14:34:39.073Z,19.20
2018-09-06T14:37:36.777Z,19.20
2018-09-06T14:40:34.470Z,19.10
2018-09-06T14:43:32.198Z,19.10
2018-09-06T14:46:29.821Z,19.00
2018-09-06T14:49:27.606Z,19.20
2018-09-06T14:52:25.386Z,19.10
2018-09-06T14:55:24.178Z,19.00
2018-09-06T14:58:24.848Z,18.90
2018-09-06T15:01:22.715Z,18.90
2018-09-06T15:04:20.520Z,18.80
2018-09-06T15:07:18.124Z,18.70
2018-09-06T15:10:15.884Z,18.60
2018-09-06T15:13:13.531Z,18.40
2018-09-06T15:16:12.360Z,18.40
2018-09-06T15:19:11.080Z,18.50
2018-09-06T15:22:08.738Z,18.50
2018-09-06T15:25:06.219Z,18.50
2018-09-06T15:28:03.850Z,18.50
2018-09-06T15:31:01.617Z,18.50
2018-09-06T15:34:06.897Z,18.50
2018-09-06T15:37:04.928Z,18.60
2018-09-06T15:40:02.280Z,18.50
2018-09-06T15:43:00.847Z,18.50
2018-09-06T15:45:58.521Z,18.40
2018-09-06T15:48:56.048Z,18.50
2018-09-06T15:51:54.859Z,18.50
2018-09-06T15:54:55.558Z,18.50
2018-09-06T15:57:54.100Z,18.40
2018-09-06T16:00:54.123Z,18.40
2018-09-06T16:03:54.705Z,18.30
2018-09-06T16:06:53.373Z,18.40
2018-09-06T16:09:52.045Z,18.40
2018-09-06T16:12:49.504Z,18.40
2018-09-06T16:15:47.287Z,18.30
2018-09-06T16:18:45.047Z,18.30
2018-09-06T16:21:43.819Z,18.40
2018-09-06T16:24:41.726Z,18.30
2018-09-06T16:27:39.014Z,18.40
2018-09-06T16:30:38.210Z,18.30
2018-09-06T16:33:37.560Z,18.30
2018-09-06T16:36:35.270Z,18.30
2018-09-06T16:39:32.942Z,18.20
2018-09-06T16:42:30.589Z,18.20
2018-09-06T16:45:29.270Z,18.20
2018-09-06T16:48:27.900Z,18.30
2018-09-06T16:51:25.818Z,18.20
2018-09-06T16:54:24.443Z,18.20
2018-09-06T16:57:22.265Z,18.20
2018-09-06T17:00:20.808Z,18.10
2018-09-06T17:03:18.452Z,18.10
2018-09-06T17:06:16.056Z,18.10
2018-09-06T17:09:16.651Z,18.00
2018-09-06T17:12:14.251Z,18.10
2018-09-06T17:15:12.109Z,18.00
2018-09-06T17:18:09.944Z,18.00
2018-09-06T17:21:08.678Z,18.00
2018-09-06T17:24:07.645Z,17.90
2018-09-06T17:27:05.366Z,18.00
2018-09-06T17:30:03.995Z,18.00
2018-09-06T17:33:02.034Z,17.90
2018-09-06T17:35:59.835Z,17.90
2018-09-06T17:38:57.768Z,17.80
2018-09-06T17:41:55.539Z,17.90
2018-09-06T17:44:53.464Z,17.90
2018-09-06T17:47:51.385Z,17.80
2018-09-06T17:50:50.162Z,17.80
2018-09-06T17:53:48.138Z,17.80
2018-09-06T17:56:45.922Z,17.70
2018-09-06T17:59:43.642Z,17.70
2018-09-06T18:02:41.370Z,17.70
2018-09-06T18:05:39.547Z,17.70
2018-09-06T18:08:37.802Z,17.70
2018-09-06T18:11:36.770Z,17.60
2018-09-06T18:14:34.353Z,17.60
2018-09-06T18:17:32.162Z,17.60
2018-09-06T18:20:29.718Z,17.50
2018-09-06T18:23:27.512Z,17.50
2018-09-06T18:26:25.315Z,17.40
2018-09-06T18:29:22.972Z,17.40
2018-09-06T18:32:20.527Z,17.30
2018-09-06T18:35:18.391Z,17.30
2018-09-06T18:38:18.195Z,17.20
2018-09-06T18:41:15.874Z,17.10
2018-09-06T18:44:13.632Z,17.10
2018-09-06T18:47:11.221Z,17.00
2018-09-06T18:50:08.982Z,16.90
2018-09-06T18:53:06.843Z,16.80
2018-09-06T18:56:04.828Z,16.80
2018-09-06T18:59:02.652Z,16.80
2018-09-06T19:02:00.640Z,16.80
2018-09-06T19:04:58.363Z,16.70
2018-09-06T19:07:56.964Z,16.70
2018-09-06T19:10:54.848Z,16.60
2018-09-06T19:13:52.554Z,16.50
2018-09-06T19:16:50.301Z,16.50
2018-09-06T19:19:47.956Z,16.40
2018-09-06T19:22:45.640Z,16.40
2018-09-06T19:25:43.376Z,16.30
2018-09-06T19:28:41.251Z,16.30
2018-09-06T19:31:38.879Z,16.30
2018-09-06T19:34:36.706Z,16.20
2018-09-06T19:37:35.490Z,16.20
2018-09-06T19:40:33.195Z,16.20
2018-09-06T19:43:31.839Z,16.20
2018-09-06T19:46:30.420Z,16.10
2018-09-06T19:49:28.063Z,16.10
2018-09-06T19:52:25.841Z,16.00
2018-09-06T19:55:23.653Z,16.00
2018-09-06T19:58:21.075Z,16.00
2018-09-06T20:01:18.883Z,15.90
2018-09-06T20:04:16.554Z,15.90
2018-09-06T20:07:14.242Z,15.80
2018-09-06T20:10:12.956Z,15.70
2018-09-06T20:13:10.669Z,15.70
2018-09-06T20:16:08.437Z,15.70
2018-09-06T20:19:06.175Z,15.60
2018-09-06T20:22:04.186Z,15.50
2018-09-06T20:25:01.751Z,15.40
2018-09-06T20:27:59.413Z,15.30
2018-09-06T20:30:56.873Z,15.30
2018-09-06T20:33:54.643Z,15.30
2018-09-06T20:36:52.262Z,15.20
2018-09-06T20:39:50.102Z,15.20
2018-09-06T20:42:47.623Z,15.20
2018-09-06T20:45:45.340Z,15.10
2018-09-06T20:48:42.997Z,15.20
2018-09-06T20:51:40.992Z,15.10
2018-09-06T20:54:38.599Z,15.10
2018-09-06T20:57:36.614Z,15.00
2018-09-06T21:00:34.387Z,15.00
2018-09-06T21:03:32.130Z,15.00
2018-09-06T21:06:29.870Z,15.00
2018-09-06T21:09:28.685Z,15.00
2018-09-06T21:12:26.500Z,14.90
2018-09-06T21:15:25.672Z,14.90
2018-09-06T21:18:22.944Z,14.80
2018-09-06T21:21:20.672Z,14.80
2018-09-06T21:24:18.636Z,14.80
2018-09-06T21:27:16.275Z,14.80
2018-09-06T21:30:13.899Z,14.80
2018-09-06T21:33:11.753Z,14.70
2018-09-06T21:36:09.629Z,14.70
2018-09-06T21:39:07.315Z,14.70
2018-09-06T21:42:04.990Z,14.70
2018-09-06T21:45:02.445Z,14.70
2018-09-06T21:48:00.284Z,14.70
2018-09-06T21:50:57.918Z,14.70
2018-09-06T21:53:55.854Z,14.60
2018-09-06T21:56:53.367Z,14.60
2018-09-06T21:59:51.645Z,14.60
2018-09-06T22:02:55.431Z,14.60
2018-09-06T22:05:53.329Z,14.60
2018-09-06T22:08:50.986Z,14.60
2018-09-06T22:11:48.786Z,14.60
2018-09-06T22:14:46.708Z,14.60
2018-09-06T22:17:44.349Z,14.50
2018-09-06T22:20:43.141Z,14.60
2018-09-06T22:23:40.703Z,14.50
2018-09-06T22:26:38.566Z,14.50
2018-09-06T22:29:36.120Z,14.50
2018-09-06T22:32:33.870Z,14.50
2018-09-06T22:35:31.323Z,14.50
2018-09-06T22:38:29.102Z,14.50
2018-09-06T22:41:27.182Z,14.40
2018-09-06T22:44:24.710Z,14.40
2018-09-06T22:47:22.311Z,14.40
2018-09-06T22:50:19.990Z,14.40
2018-09-06T22:53:17.624Z,14.40
2018-09-06T22:56:15.248Z,14.40
2018-09-06T22:59:43.821Z,14.50
2018-09-06T23:02:47.392Z,14.50
2018-09-06T23:05:45.061Z,14.50
2018-09-06T23:08:42.820Z,14.50
2018-09-06T23:11:40.594Z,14.50
2018-09-06T23:14:38.263Z,14.50
2018-09-06T23:17:36.061Z,14.50
2018-09-06T23:20:33.899Z,14.60
2018-09-06T23:23:31.514Z,14.50
2018-09-06T23:26:29.103Z,14.50
2018-09-06T23:29:26.821Z,14.50
2018-09-06T23:32:24.585Z,14.60
2018-09-06T23:35:22.232Z,14.50
2018-09-06T23:38:19.902Z,14.60
2018-09-06T23:41:17.593Z,14.60
2018-09-06T23:44:15.184Z,14.60
2018-09-06T23:47:13.005Z,14.70
2018-09-06T23:50:10.470Z,14.70
2018-09-06T23:53:08.119Z,14.60
2018-09-06T23:56:05.983Z,14.60
2018-09-06T23:59:03.768Z,14.70
